sensor_id;sensor_type;location;lat;lon;timestamp;temperature;humidity
3678;DHT22;1855;50.934;6.958;2023-03-07T00:01:48;3.80;99.90
3678;DHT22;1855;50.934;6.958;2023-03-07T00:04:15;3.80;99.90
3678;DHT22;1855;50.934;6.958;2023-03-07T00:06:42;3.80;99.90
3678;DHT22;1855;50.934;6.958;2023-03-07T00:09:08;3.80;99.90
3678;DHT22;1855;50.934;6.958;2023-03-07T00:11:37;3.80;99.90
3678;DHT22;1855;50.934;6.958;2023-03-07T00:14:05;3.90;99.90
3678;DHT22;1855;50.934;6.958;2023-03-07T00:16:32;3.90;99.90
3678;DHT22;1855;50.934;6.958;2023-03-07T00:18:59;3.80;99.90
3678;DHT22;1855;50.934;6.958;2023-03-07T00:21:26;3.90;99.90
3678;DHT22;1855;50.934;6.958;2023-03-07T00:23:56;3.80;99.90
3678;DHT22;1855;50.934;6.958;2023-03-07T00:26:24;3.90;99.90
3678;DHT22;1855;50.934;6.958;2023-03-07T00:28:53;3.80;99.90
3678;DHT22;1855;50.934;6.958;2023-03-07T00:31:21;3.90;99.90
3678;DHT22;1855;50.934;6.958;2023-03-07T00:33:48;3.90;99.90
3678;DHT22;1855;50.934;6.958;2023-03-07T00:36:17;3.90;99.90
3678;DHT22;1855;50.934;6.958;2023-03-07T00:38:45;3.90;99.90
3678;DHT22;1855;50.934;6.958;2023-03-07T00:41:14;3.90;99.90
3678;DHT22;1855;50.934;6.958;2023-03-07T00:43:42;3.90;99.90
3678;DHT22;1855;50.934;6.958;2023-03-07T00:46:12;4.00;99.90
3678;DHT22;1855;50.934;6.958;2023-03-07T00:48:39;4.00;99.90
3678;DHT22;1855;50.934;6.958;2023-03-07T00:51:08;4.00;99.90
3678;DHT22;1855;50.934;6.958;2023-03-07T00:53:36;4.00;99.90
3678;DHT22;1855;50.934;6.958;2023-03-07T00:56:04;4.10;99.90
3678;DHT22;1855;50.934;6.958;2023-03-07T00:58:32;4.10;99.90
3678;DHT22;1855;50.934;6.958;2023-03-07T01:01:00;4.10;99.90
3678;DHT22;1855;50.934;6.958;2023-03-07T01:03:29;4.10;99.90
3678;DHT22;1855;50.934;6.958;2023-03-07T01:05:56;4.10;99.90
3678;DHT22;1855;50.934;6.958;2023-03-07T01:08:24;4.20;99.90
3678;DHT22;1855;50.934;6.958;2023-03-07T01:10:50;4.20;99.90
3678;DHT22;1855;50.934;6.958;2023-03-07T01:13:18;4.20;99.90
3678;DHT22;1855;50.934;6.958;2023-03-07T01:15:45;4.20;99.90
3678;DHT22;1855;50.934;6.958;2023-03-07T01:18:12;4.20;99.90
3678;DHT22;1855;50.934;6.958;2023-03-07T01:20:40;4.20;99.90
3678;DHT22;1855;50.934;6.958;2023-03-07T01:23:07;4.20;99.90
3678;DHT22;1855;50.934;6.958;2023-03-07T01:25:37;4.20;99.90
3678;DHT22;1855;50.934;6.958;2023-03-07T01:28:05;4.30;99.90
3678;DHT22;1855;50.934;6.958;2023-03-07T01:30:32;4.30;99.90
3678;DHT22;1855;50.934;6.958;2023-03-07T01:33:00;4.30;99.90
3678;DHT22;1855;50.934;6.958;2023-03-07T01:35:28;4.30;99.90
3678;DHT22;1855;50.934;6.958;2023-03-07T01:37:56;4.30;99.90
3678;DHT22;1855;50.934;6.958;2023-03-07T01:40:23;4.30;99.90
3678;DHT22;1855;50.934;6.958;2023-03-07T01:42:50;4.30;99.90
3678;DHT22;1855;50.934;6.958;2023-03-07T01:48:22;4.30;99.90
3678;DHT22;1855;50.934;6.958;2023-03-07T01:50:49;4.30;99.90
3678;DHT22;1855;50.934;6.958;2023-03-07T01:53:17;4.20;99.90
3678;DHT22;1855;50.934;6.958;2023-03-07T01:55:46;4.30;99.90
3678;DHT22;1855;50.934;6.958;2023-03-07T01:58:14;4.20;99.90
3678;DHT22;1855;50.934;6.958;2023-03-07T02:00:42;4.20;99.90
3678;DHT22;1855;50.934;6.958;2023-03-07T02:03:15;4.20;99.90
3678;DHT22;1855;50.934;6.958;2023-03-07T02:05:48;4.10;99.90
3678;DHT22;1855;50.934;6.958;2023-03-07T02:08:19;4.10;99.90
3678;DHT22;1855;50.934;6.958;2023-03-07T02:10:47;4.10;99.90
3678;DHT22;1855;50.934;6.958;2023-03-07T02:13:14;4.10;99.90
3678;DHT22;1855;50.934;6.958;2023-03-07T02:15:41;4.10;99.90
3678;DHT22;1855;50.934;6.958;2023-03-07T02:18:08;4.10;99.90
3678;DHT22;1855;50.934;6.958;2023-03-07T02:20:44;4.10;99.90
3678;DHT22;1855;50.934;6.958;2023-03-07T02:23:19;4.10;99.90
3678;DHT22;1855;50.934;6.958;2023-03-07T02:25:53;4.10;99.90
3678;DHT22;1855;50.934;6.958;2023-03-07T02:28:24;4.10;99.90
3678;DHT22;1855;50.934;6.958;2023-03-07T02:30:56;4.20;99.90
3678;DHT22;1855;50.934;6.958;2023-03-07T02:33:23;4.20;99.90
3678;DHT22;1855;50.934;6.958;2023-03-07T02:35:52;4.20;99.90
3678;DHT22;1855;50.934;6.958;2023-03-07T02:38:20;4.30;99.90
3678;DHT22;1855;50.934;6.958;2023-03-07T02:40:48;4.30;99.90
3678;DHT22;1855;50.934;6.958;2023-03-07T02:43:15;4.30;99.90
3678;DHT22;1855;50.934;6.958;2023-03-07T02:45:43;4.30;99.90
3678;DHT22;1855;50.934;6.958;2023-03-07T02:48:10;4.40;99.90
3678;DHT22;1855;50.934;6.958;2023-03-07T02:50:37;4.40;99.90
3678;DHT22;1855;50.934;6.958;2023-03-07T02:53:03;4.50;99.90
3678;DHT22;1855;50.934;6.958;2023-03-07T02:55:30;4.50;99.90
3678;DHT22;1855;50.934;6.958;2023-03-07T02:57:58;4.50;99.90
3678;DHT22;1855;50.934;6.958;2023-03-07T03:00:25;4.50;99.90
3678;DHT22;1855;50.934;6.958;2023-03-07T03:02:53;4.50;99.90
3678;DHT22;1855;50.934;6.958;2023-03-07T03:05:20;4.40;99.90
3678;DHT22;1855;50.934;6.958;2023-03-07T03:07:46;4.40;99.90
3678;DHT22;1855;50.934;6.958;2023-03-07T03:10:14;4.30;99.90
3678;DHT22;1855;50.934;6.958;2023-03-07T03:12:41;4.30;99.90
3678;DHT22;1855;50.934;6.958;2023-03-07T03:15:09;4.30;99.90
3678;DHT22;1855;50.934;6.958;2023-03-07T03:17:35;4.30;99.90
3678;DHT22;1855;50.934;6.958;2023-03-07T03:20:05;4.30;99.90
3678;DHT22;1855;50.934;6.958;2023-03-07T03:22:36;4.20;99.90
3678;DHT22;1855;50.934;6.958;2023-03-07T03:25:03;4.30;99.90
3678;DHT22;1855;50.934;6.958;2023-03-07T03:27:31;4.20;99.90
3678;DHT22;1855;50.934;6.958;2023-03-07T03:29:57;4.20;99.90
3678;DHT22;1855;50.934;6.958;2023-03-07T03:32:24;4.20;99.90
3678;DHT22;1855;50.934;6.958;2023-03-07T03:34:51;4.20;99.90
3678;DHT22;1855;50.934;6.958;2023-03-07T03:37:19;4.20;99.90
3678;DHT22;1855;50.934;6.958;2023-03-07T03:39:46;4.20;99.90
3678;DHT22;1855;50.934;6.958;2023-03-07T03:42:12;4.10;99.90
3678;DHT22;1855;50.934;6.958;2023-03-07T03:44:39;4.10;99.90
3678;DHT22;1855;50.934;6.958;2023-03-07T03:47:06;4.10;99.90
3678;DHT22;1855;50.934;6.958;2023-03-07T03:49:33;4.10;99.90
3678;DHT22;1855;50.934;6.958;2023-03-07T03:52:00;4.10;99.90
3678;DHT22;1855;50.934;6.958;2023-03-07T03:54:28;4.00;99.90
3678;DHT22;1855;50.934;6.958;2023-03-07T03:56:55;4.00;99.90
3678;DHT22;1855;50.934;6.958;2023-03-07T03:59:22;4.00;99.90
3678;DHT22;1855;50.934;6.958;2023-03-07T04:01:49;4.00;99.90
3678;DHT22;1855;50.934;6.958;2023-03-07T04:04:16;3.90;99.90
3678;DHT22;1855;50.934;6.958;2023-03-07T04:06:42;4.00;99.90
3678;DHT22;1855;50.934;6.958;2023-03-07T04:09:09;3.90;99.90
3678;DHT22;1855;50.934;6.958;2023-03-07T04:11:37;3.90;99.90
3678;DHT22;1855;50.934;6.958;2023-03-07T04:14:04;3.90;99.90
3678;DHT22;1855;50.934;6.958;2023-03-07T04:16:31;3.90;99.90
3678;DHT22;1855;50.934;6.958;2023-03-07T04:18:58;3.90;99.90
3678;DHT22;1855;50.934;6.958;2023-03-07T04:21:24;3.90;99.90
3678;DHT22;1855;50.934;6.958;2023-03-07T04:23:51;3.90;99.90
3678;DHT22;1855;50.934;6.958;2023-03-07T04:26:20;3.90;99.90
3678;DHT22;1855;50.934;6.958;2023-03-07T04:28:48;3.90;99.90
3678;DHT22;1855;50.934;6.958;2023-03-07T04:31:17;3.90;99.90
3678;DHT22;1855;50.934;6.958;2023-03-07T04:33:44;3.90;99.90
3678;DHT22;1855;50.934;6.958;2023-03-07T04:36:12;3.90;99.90
3678;DHT22;1855;50.934;6.958;2023-03-07T04:38:39;3.90;99.90
3678;DHT22;1855;50.934;6.958;2023-03-07T04:41:07;4.00;99.90
3678;DHT22;1855;50.934;6.958;2023-03-07T04:43:34;4.00;99.90
3678;DHT22;1855;50.934;6.958;2023-03-07T04:46:02;4.00;99.90
3678;DHT22;1855;50.934;6.958;2023-03-07T04:48:29;4.00;99.90
3678;DHT22;1855;50.934;6.958;2023-03-07T04:50:55;4.00;99.90
3678;DHT22;1855;50.934;6.958;2023-03-07T04:53:22;4.00;99.90
3678;DHT22;1855;50.934;6.958;2023-03-07T04:55:49;4.00;99.90
3678;DHT22;1855;50.934;6.958;2023-03-07T04:58:16;4.00;99.90
3678;DHT22;1855;50.934;6.958;2023-03-07T05:00:44;4.00;99.90
3678;DHT22;1855;50.934;6.958;2023-03-07T05:03:13;4.00;99.90
3678;DHT22;1855;50.934;6.958;2023-03-07T05:05:40;3.90;99.90
3678;DHT22;1855;50.934;6.958;2023-03-07T05:08:07;3.90;99.90
3678;DHT22;1855;50.934;6.958;2023-03-07T05:10:34;3.90;99.90
3678;DHT22;1855;50.934;6.958;2023-03-07T05:13:02;3.90;99.90
3678;DHT22;1855;50.934;6.958;2023-03-07T05:15:29;3.90;99.90
3678;DHT22;1855;50.934;6.958;2023-03-07T05:17:55;3.90;99.90
3678;DHT22;1855;50.934;6.958;2023-03-07T05:20:24;3.90;99.90
3678;DHT22;1855;50.934;6.958;2023-03-07T05:22:50;3.90;99.90
3678;DHT22;1855;50.934;6.958;2023-03-07T05:25:17;3.90;99.90
3678;DHT22;1855;50.934;6.958;2023-03-07T05:27:44;3.90;99.90
3678;DHT22;1855;50.934;6.958;2023-03-07T05:30:11;3.90;99.90
3678;DHT22;1855;50.934;6.958;2023-03-07T05:32:38;3.80;99.90
3678;DHT22;1855;50.934;6.958;2023-03-07T05:35:06;3.80;99.90
3678;DHT22;1855;50.934;6.958;2023-03-07T05:37:35;3.80;99.90
3678;DHT22;1855;50.934;6.958;2023-03-07T05:40:04;3.80;99.90
3678;DHT22;1855;50.934;6.958;2023-03-07T05:42:33;3.80;99.90
3678;DHT22;1855;50.934;6.958;2023-03-07T05:45:00;3.80;99.90
3678;DHT22;1855;50.934;6.958;2023-03-07T05:47:27;3.80;99.90
3678;DHT22;1855;50.934;6.958;2023-03-07T05:49:54;3.90;99.90
3678;DHT22;1855;50.934;6.958;2023-03-07T05:52:21;3.80;99.90
3678;DHT22;1855;50.934;6.958;2023-03-07T05:54:49;3.90;99.90
3678;DHT22;1855;50.934;6.958;2023-03-07T05:57:16;3.80;99.90
3678;DHT22;1855;50.934;6.958;2023-03-07T05:59:43;3.90;99.90
3678;DHT22;1855;50.934;6.958;2023-03-07T06:02:10;3.90;99.90
3678;DHT22;1855;50.934;6.958;2023-03-07T06:04:36;3.90;99.90
3678;DHT22;1855;50.934;6.958;2023-03-07T06:07:03;3.90;99.90
3678;DHT22;1855;50.934;6.958;2023-03-07T06:09:30;3.90;99.90
3678;DHT22;1855;50.934;6.958;2023-03-07T06:11:58;3.90;99.90
3678;DHT22;1855;50.934;6.958;2023-03-07T06:14:25;3.90;99.90
3678;DHT22;1855;50.934;6.958;2023-03-07T06:16:52;3.90;99.90
3678;DHT22;1855;50.934;6.958;2023-03-07T06:19:18;3.90;99.90
3678;DHT22;1855;50.934;6.958;2023-03-07T06:21:45;4.00;99.90
3678;DHT22;1855;50.934;6.958;2023-03-07T06:24:12;4.00;99.90
3678;DHT22;1855;50.934;6.958;2023-03-07T06:26:39;4.00;99.90
3678;DHT22;1855;50.934;6.958;2023-03-07T06:29:07;4.00;99.90
3678;DHT22;1855;50.934;6.958;2023-03-07T06:31:33;4.10;99.90
3678;DHT22;1855;50.934;6.958;2023-03-07T06:34:00;4.00;99.90
3678;DHT22;1855;50.934;6.958;2023-03-07T06:36:27;4.00;99.90
3678;DHT22;1855;50.934;6.958;2023-03-07T06:38:54;4.10;99.90
3678;DHT22;1855;50.934;6.958;2023-03-07T06:41:20;4.00;99.90
3678;DHT22;1855;50.934;6.958;2023-03-07T06:43:49;4.00;99.90
3678;DHT22;1855;50.934;6.958;2023-03-07T06:46:18;4.00;99.90
3678;DHT22;1855;50.934;6.958;2023-03-07T06:48:45;4.10;99.90
3678;DHT22;1855;50.934;6.958;2023-03-07T06:51:12;4.10;99.90
3678;DHT22;1855;50.934;6.958;2023-03-07T06:53:39;4.10;99.90
3678;DHT22;1855;50.934;6.958;2023-03-07T06:56:05;4.10;99.90
3678;DHT22;1855;50.934;6.958;2023-03-07T06:58:32;4.20;99.90
3678;DHT22;1855;50.934;6.958;2023-03-07T07:00:59;4.10;99.90
3678;DHT22;1855;50.934;6.958;2023-03-07T07:03:27;4.10;99.90
3678;DHT22;1855;50.934;6.958;2023-03-07T07:05:54;4.20;99.90
3678;DHT22;1855;50.934;6.958;2023-03-07T07:08:21;4.20;99.90
3678;DHT22;1855;50.934;6.958;2023-03-07T07:10:48;4.20;99.90
3678;DHT22;1855;50.934;6.958;2023-03-07T07:13:14;4.30;99.90
3678;DHT22;1855;50.934;6.958;2023-03-07T07:15:41;4.30;99.90
3678;DHT22;1855;50.934;6.958;2023-03-07T07:18:10;4.40;99.90
3678;DHT22;1855;50.934;6.958;2023-03-07T07:20:39;4.40;99.90
3678;DHT22;1855;50.934;6.958;2023-03-07T07:23:05;4.40;99.90
3678;DHT22;1855;50.934;6.958;2023-03-07T07:25:33;4.50;99.90
3678;DHT22;1855;50.934;6.958;2023-03-07T07:28:00;4.50;99.90
3678;DHT22;1855;50.934;6.958;2023-03-07T07:30:26;4.50;99.90
3678;DHT22;1855;50.934;6.958;2023-03-07T07:32:53;4.50;99.90
3678;DHT22;1855;50.934;6.958;2023-03-07T07:35:20;4.50;99.90
3678;DHT22;1855;50.934;6.958;2023-03-07T07:37:48;4.60;99.90
3678;DHT22;1855;50.934;6.958;2023-03-07T07:40:15;4.70;99.90
3678;DHT22;1855;50.934;6.958;2023-03-07T07:42:41;4.60;99.90
3678;DHT22;1855;50.934;6.958;2023-03-07T07:45:09;4.60;99.90
3678;DHT22;1855;50.934;6.958;2023-03-07T07:47:36;4.70;99.90
3678;DHT22;1855;50.934;6.958;2023-03-07T07:50:03;4.70;99.90
3678;DHT22;1855;50.934;6.958;2023-03-07T07:52:30;4.70;99.90
3678;DHT22;1855;50.934;6.958;2023-03-07T07:54:58;4.70;99.90
3678;DHT22;1855;50.934;6.958;2023-03-07T07:57:25;4.80;99.90
3678;DHT22;1855;50.934;6.958;2023-03-07T07:59:52;4.70;99.90
3678;DHT22;1855;50.934;6.958;2023-03-07T08:02:18;4.70;99.90
3678;DHT22;1855;50.934;6.958;2023-03-07T08:04:45;4.70;99.90
3678;DHT22;1855;50.934;6.958;2023-03-07T08:07:12;4.60;99.90
3678;DHT22;1855;50.934;6.958;2023-03-07T08:09:39;4.70;99.90
3678;DHT22;1855;50.934;6.958;2023-03-07T08:12:09;4.70;99.90
3678;DHT22;1855;50.934;6.958;2023-03-07T08:14:36;4.60;99.90
3678;DHT22;1855;50.934;6.958;2023-03-07T08:17:03;4.60;99.90
3678;DHT22;1855;50.934;6.958;2023-03-07T08:19:30;4.60;99.90
3678;DHT22;1855;50.934;6.958;2023-03-07T08:21:57;4.60;99.90
3678;DHT22;1855;50.934;6.958;2023-03-07T08:24:24;4.60;99.90
3678;DHT22;1855;50.934;6.958;2023-03-07T08:26:51;4.60;99.90
3678;DHT22;1855;50.934;6.958;2023-03-07T08:29:19;4.60;99.90
3678;DHT22;1855;50.934;6.958;2023-03-07T08:31:46;4.70;99.90
3678;DHT22;1855;50.934;6.958;2023-03-07T08:34:15;4.80;99.90
3678;DHT22;1855;50.934;6.958;2023-03-07T08:36:42;4.80;99.90
3678;DHT22;1855;50.934;6.958;2023-03-07T08:39:09;4.80;99.90
3678;DHT22;1855;50.934;6.958;2023-03-07T08:41:36;4.80;99.90
3678;DHT22;1855;50.934;6.958;2023-03-07T08:44:03;4.90;99.90
3678;DHT22;1855;50.934;6.958;2023-03-07T08:46:31;5.00;99.90
3678;DHT22;1855;50.934;6.958;2023-03-07T08:48:58;5.10;99.90
3678;DHT22;1855;50.934;6.958;2023-03-07T08:51:25;5.20;99.90
3678;DHT22;1855;50.934;6.958;2023-03-07T08:53:52;5.20;99.90
3678;DHT22;1855;50.934;6.958;2023-03-07T08:56:19;5.20;99.90
3678;DHT22;1855;50.934;6.958;2023-03-07T08:58:46;5.30;99.90
3678;DHT22;1855;50.934;6.958;2023-03-07T09:01:13;5.30;99.90
3678;DHT22;1855;50.934;6.958;2023-03-07T09:03:41;5.40;99.90
3678;DHT22;1855;50.934;6.958;2023-03-07T09:06:14;5.40;99.90
3678;DHT22;1855;50.934;6.958;2023-03-07T09:08:42;5.30;99.90
3678;DHT22;1855;50.934;6.958;2023-03-07T09:11:09;5.40;99.90
3678;DHT22;1855;50.934;6.958;2023-03-07T09:13:35;5.40;99.90
3678;DHT22;1855;50.934;6.958;2023-03-07T09:16:03;5.40;99.90
3678;DHT22;1855;50.934;6.958;2023-03-07T09:18:30;5.50;99.90
3678;DHT22;1855;50.934;6.958;2023-03-07T09:20:59;5.50;99.90
3678;DHT22;1855;50.934;6.958;2023-03-07T09:23:26;5.60;99.90
3678;DHT22;1855;50.934;6.958;2023-03-07T09:25:52;5.60;99.90
3678;DHT22;1855;50.934;6.958;2023-03-07T09:28:19;5.70;99.90
3678;DHT22;1855;50.934;6.958;2023-03-07T09:30:46;5.60;99.90
3678;DHT22;1855;50.934;6.958;2023-03-07T09:33:13;5.70;99.90
3678;DHT22;1855;50.934;6.958;2023-03-07T09:35:40;5.70;99.70
3678;DHT22;1855;50.934;6.958;2023-03-07T09:38:08;5.80;99.90
3678;DHT22;1855;50.934;6.958;2023-03-07T09:40:36;5.80;99.40
3678;DHT22;1855;50.934;6.958;2023-03-07T09:43:09;5.80;99.70
3678;DHT22;1855;50.934;6.958;2023-03-07T09:45:46;5.90;99.60
3678;DHT22;1855;50.934;6.958;2023-03-07T09:51:35;5.90;98.90
3678;DHT22;1855;50.934;6.958;2023-03-07T09:54:05;5.90;99.10
3678;DHT22;1855;50.934;6.958;2023-03-07T09:56:37;5.90;99.80
3678;DHT22;1855;50.934;6.958;2023-03-07T09:59:13;6.00;99.20
3678;DHT22;1855;50.934;6.958;2023-03-07T10:01:43;6.00;99.70
3678;DHT22;1855;50.934;6.958;2023-03-07T10:04:16;6.00;99.90
3678;DHT22;1855;50.934;6.958;2023-03-07T10:06:50;6.00;99.60
3678;DHT22;1855;50.934;6.958;2023-03-07T10:09:21;5.90;99.90
3678;DHT22;1855;50.934;6.958;2023-03-07T10:11:57;5.80;99.90
3678;DHT22;1855;50.934;6.958;2023-03-07T10:14:43;5.80;99.90
3678;DHT22;1855;50.934;6.958;2023-03-07T10:17:19;5.80;99.90
3678;DHT22;1855;50.934;6.958;2023-03-07T10:19:49;5.80;99.90
3678;DHT22;1855;50.934;6.958;2023-03-07T10:22:20;5.80;99.90
3678;DHT22;1855;50.934;6.958;2023-03-07T10:25:11;5.80;99.90
3678;DHT22;1855;50.934;6.958;2023-03-07T10:27:39;5.70;99.90
3678;DHT22;1855;50.934;6.958;2023-03-07T10:30:12;5.60;99.90
3678;DHT22;1855;50.934;6.958;2023-03-07T10:32:44;5.60;99.90
3678;DHT22;1855;50.934;6.958;2023-03-07T10:35:17;5.50;99.90
3678;DHT22;1855;50.934;6.958;2023-03-07T10:37:47;5.40;99.90
3678;DHT22;1855;50.934;6.958;2023-03-07T10:40:23;5.40;99.90
3678;DHT22;1855;50.934;6.958;2023-03-07T10:42:51;5.40;99.90
3678;DHT22;1855;50.934;6.958;2023-03-07T10:45:18;5.40;99.90
3678;DHT22;1855;50.934;6.958;2023-03-07T10:47:45;5.40;99.90
3678;DHT22;1855;50.934;6.958;2023-03-07T10:50:23;5.40;99.90
3678;DHT22;1855;50.934;6.958;2023-03-07T10:52:54;5.40;99.90
3678;DHT22;1855;50.934;6.958;2023-03-07T10:55:32;5.30;99.90
3678;DHT22;1855;50.934;6.958;2023-03-07T10:58:13;5.30;99.90
3678;DHT22;1855;50.934;6.958;2023-03-07T11:00:42;5.30;99.90
3678;DHT22;1855;50.934;6.958;2023-03-07T11:03:25;5.30;99.90
3678;DHT22;1855;50.934;6.958;2023-03-07T11:05:52;5.30;99.90
3678;DHT22;1855;50.934;6.958;2023-03-07T11:08:23;5.30;99.90
3678;DHT22;1855;50.934;6.958;2023-03-07T11:10:53;5.30;99.90
3678;DHT22;1855;50.934;6.958;2023-03-07T11:13:21;5.30;99.90
3678;DHT22;1855;50.934;6.958;2023-03-07T11:15:48;5.30;99.90
3678;DHT22;1855;50.934;6.958;2023-03-07T11:18:27;5.30;99.90
3678;DHT22;1855;50.934;6.958;2023-03-07T11:20:54;5.30;99.90
3678;DHT22;1855;50.934;6.958;2023-03-07T11:23:27;5.30;99.90
3678;DHT22;1855;50.934;6.958;2023-03-07T11:26:14;5.30;99.90
3678;DHT22;1855;50.934;6.958;2023-03-07T11:28:41;5.30;99.90
3678;DHT22;1855;50.934;6.958;2023-03-07T11:31:16;5.30;99.90
3678;DHT22;1855;50.934;6.958;2023-03-07T11:33:49;5.30;99.90
3678;DHT22;1855;50.934;6.958;2023-03-07T11:36:19;5.30;99.90
3678;DHT22;1855;50.934;6.958;2023-03-07T11:38:56;5.40;99.90
3678;DHT22;1855;50.934;6.958;2023-03-07T11:41:27;5.40;99.90
3678;DHT22;1855;50.934;6.958;2023-03-07T11:44:24;5.40;99.90
3678;DHT22;1855;50.934;6.958;2023-03-07T11:47:11;5.50;99.90
3678;DHT22;1855;50.934;6.958;2023-03-07T11:49:44;5.40;99.90
3678;DHT22;1855;50.934;6.958;2023-03-07T11:52:32;5.40;99.90
3678;DHT22;1855;50.934;6.958;2023-03-07T11:55:14;5.30;99.90
3678;DHT22;1855;50.934;6.958;2023-03-07T11:58:02;5.30;99.90
3678;DHT22;1855;50.934;6.958;2023-03-07T12:00:42;5.20;99.90
3678;DHT22;1855;50.934;6.958;2023-03-07T12:03:27;5.20;99.90
3678;DHT22;1855;50.934;6.958;2023-03-07T12:06:11;5.20;99.90
3678;DHT22;1855;50.934;6.958;2023-03-07T12:08:52;5.20;99.90
3678;DHT22;1855;50.934;6.958;2023-03-07T12:11:41;5.20;99.90
3678;DHT22;1855;50.934;6.958;2023-03-07T12:14:21;5.20;99.90
3678;DHT22;1855;50.934;6.958;2023-03-07T12:16:56;5.20;99.90
3678;DHT22;1855;50.934;6.958;2023-03-07T12:19:52;5.20;99.90
3678;DHT22;1855;50.934;6.958;2023-03-07T12:22:28;5.20;99.90
3678;DHT22;1855;50.934;6.958;2023-03-07T12:25:10;5.30;99.90
3678;DHT22;1855;50.934;6.958;2023-03-07T12:27:44;5.20;99.90
3678;DHT22;1855;50.934;6.958;2023-03-07T12:30:17;5.10;99.90
3678;DHT22;1855;50.934;6.958;2023-03-07T12:32:45;5.10;99.90
3678;DHT22;1855;50.934;6.958;2023-03-07T12:35:20;5.00;99.90
3678;DHT22;1855;50.934;6.958;2023-03-07T12:37:51;4.90;99.90
3678;DHT22;1855;50.934;6.958;2023-03-07T12:40:22;4.90;99.90
3678;DHT22;1855;50.934;6.958;2023-03-07T12:42:55;4.90;99.90
3678;DHT22;1855;50.934;6.958;2023-03-07T12:45:26;4.90;99.90
3678;DHT22;1855;50.934;6.958;2023-03-07T12:47:59;4.90;99.90
3678;DHT22;1855;50.934;6.958;2023-03-07T12:50:30;4.80;99.90
3678;DHT22;1855;50.934;6.958;2023-03-07T12:53:02;4.70;99.90
3678;DHT22;1855;50.934;6.958;2023-03-07T12:55:35;4.60;99.90
3678;DHT22;1855;50.934;6.958;2023-03-07T12:58:05;4.50;99.90
3678;DHT22;1855;50.934;6.958;2023-03-07T13:00:36;4.50;99.90
3678;DHT22;1855;50.934;6.958;2023-03-07T13:03:05;4.50;99.90
3678;DHT22;1855;50.934;6.958;2023-03-07T13:05:34;4.40;99.90
3678;DHT22;1855;50.934;6.958;2023-03-07T13:08:04;4.40;99.90
3678;DHT22;1855;50.934;6.958;2023-03-07T13:10:32;4.40;99.90
3678;DHT22;1855;50.934;6.958;2023-03-07T13:12:59;4.50;99.90
3678;DHT22;1855;50.934;6.958;2023-03-07T13:16:00;4.50;99.90
3678;DHT22;1855;50.934;6.958;2023-03-07T13:18:30;4.40;99.90
3678;DHT22;1855;50.934;6.958;2023-03-07T13:21:09;4.40;99.90
3678;DHT22;1855;50.934;6.958;2023-03-07T13:23:36;4.30;99.90
3678;DHT22;1855;50.934;6.958;2023-03-07T13:26:12;4.30;99.90
3678;DHT22;1855;50.934;6.958;2023-03-07T13:28:46;4.20;99.90
3678;DHT22;1855;50.934;6.958;2023-03-07T13:31:26;4.20;99.90
3678;DHT22;1855;50.934;6.958;2023-03-07T13:33:55;4.00;99.90
3678;DHT22;1855;50.934;6.958;2023-03-07T13:36:34;3.80;99.90
3678;DHT22;1855;50.934;6.958;2023-03-07T13:39:02;3.90;99.90
3678;DHT22;1855;50.934;6.958;2023-03-07T13:41:46;4.10;99.90
3678;DHT22;1855;50.934;6.958;2023-03-07T13:44:29;4.30;99.90
3678;DHT22;1855;50.934;6.958;2023-03-07T13:47:03;4.30;99.90
3678;DHT22;1855;50.934;6.958;2023-03-07T13:49:43;4.30;99.90
3678;DHT22;1855;50.934;6.958;2023-03-07T13:52:29;4.20;99.90
3678;DHT22;1855;50.934;6.958;2023-03-07T13:54:58;4.20;99.90
3678;DHT22;1855;50.934;6.958;2023-03-07T13:57:32;4.00;99.90
3678;DHT22;1855;50.934;6.958;2023-03-07T14:00:00;3.90;99.90
3678;DHT22;1855;50.934;6.958;2023-03-07T14:02:30;3.90;99.90
3678;DHT22;1855;50.934;6.958;2023-03-07T14:05:01;3.90;99.90
3678;DHT22;1855;50.934;6.958;2023-03-07T14:07:32;3.80;99.90
3678;DHT22;1855;50.934;6.958;2023-03-07T14:10:02;3.70;99.90
3678;DHT22;1855;50.934;6.958;2023-03-07T14:12:36;3.70;99.90
3678;DHT22;1855;50.934;6.958;2023-03-07T14:15:22;3.50;99.90
3678;DHT22;1855;50.934;6.958;2023-03-07T14:18:08;3.40;99.90
3678;DHT22;1855;50.934;6.958;2023-03-07T14:20:50;3.40;99.90
3678;DHT22;1855;50.934;6.958;2023-03-07T14:23:32;3.40;99.90
3678;DHT22;1855;50.934;6.958;2023-03-07T14:26:10;3.40;99.90
3678;DHT22;1855;50.934;6.958;2023-03-07T14:28:46;3.40;99.90
3678;DHT22;1855;50.934;6.958;2023-03-07T14:31:21;3.30;99.90
3678;DHT22;1855;50.934;6.958;2023-03-07T14:33:51;3.30;99.90
3678;DHT22;1855;50.934;6.958;2023-03-07T14:36:19;3.20;99.90
3678;DHT22;1855;50.934;6.958;2023-03-07T14:38:47;3.20;99.90
3678;DHT22;1855;50.934;6.958;2023-03-07T14:41:36;3.20;99.90
3678;DHT22;1855;50.934;6.958;2023-03-07T14:47:10;3.20;99.90
3678;DHT22;1855;50.934;6.958;2023-03-07T14:49:51;3.20;99.90
3678;DHT22;1855;50.934;6.958;2023-03-07T14:52:21;3.10;99.90
3678;DHT22;1855;50.934;6.958;2023-03-07T14:54:51;3.10;99.90
3678;DHT22;1855;50.934;6.958;2023-03-07T14:57:21;3.00;99.90
3678;DHT22;1855;50.934;6.958;2023-03-07T15:00:06;2.90;99.90
3678;DHT22;1855;50.934;6.958;2023-03-07T15:02:44;2.80;99.90
3678;DHT22;1855;50.934;6.958;2023-03-07T15:05:15;2.70;99.90
3678;DHT22;1855;50.934;6.958;2023-03-07T15:07:42;2.70;99.90
3678;DHT22;1855;50.934;6.958;2023-03-07T15:10:14;2.70;99.90
3678;DHT22;1855;50.934;6.958;2023-03-07T15:12:43;2.70;99.90
3678;DHT22;1855;50.934;6.958;2023-03-07T15:15:27;2.70;99.90
3678;DHT22;1855;50.934;6.958;2023-03-07T15:17:58;2.70;99.90
3678;DHT22;1855;50.934;6.958;2023-03-07T15:20:27;2.70;99.90
3678;DHT22;1855;50.934;6.958;2023-03-07T15:23:03;2.60;99.90
3678;DHT22;1855;50.934;6.958;2023-03-07T15:25:32;2.50;99.90
3678;DHT22;1855;50.934;6.958;2023-03-07T15:28:05;2.30;99.90
3678;DHT22;1855;50.934;6.958;2023-03-07T15:30:34;2.20;99.90
3678;DHT22;1855;50.934;6.958;2023-03-07T15:33:13;2.00;99.90
3678;DHT22;1855;50.934;6.958;2023-03-07T15:35:42;1.90;99.90
3678;DHT22;1855;50.934;6.958;2023-03-07T15:38:15;1.90;99.90
3678;DHT22;1855;50.934;6.958;2023-03-07T15:40:44;2.00;99.90
3678;DHT22;1855;50.934;6.958;2023-03-07T15:43:24;2.00;99.90
3678;DHT22;1855;50.934;6.958;2023-03-07T15:46:00;2.10;99.90
3678;DHT22;1855;50.934;6.958;2023-03-07T15:48:35;2.10;99.90
3678;DHT22;1855;50.934;6.958;2023-03-07T15:51:05;2.20;99.90
3678;DHT22;1855;50.934;6.958;2023-03-07T15:53:37;2.20;99.90
3678;DHT22;1855;50.934;6.958;2023-03-07T15:56:06;2.10;99.90
3678;DHT22;1855;50.934;6.958;2023-03-07T15:58:35;1.90;99.90
3678;DHT22;1855;50.934;6.958;2023-03-07T16:01:05;1.80;99.90
3678;DHT22;1855;50.934;6.958;2023-03-07T16:03:32;1.80;99.90
3678;DHT22;1855;50.934;6.958;2023-03-07T16:06:00;1.80;99.90
3678;DHT22;1855;50.934;6.958;2023-03-07T16:08:28;1.80;99.90
3678;DHT22;1855;50.934;6.958;2023-03-07T16:10:58;1.70;99.90
3678;DHT22;1855;50.934;6.958;2023-03-07T16:13:28;1.70;99.90
3678;DHT22;1855;50.934;6.958;2023-03-07T16:16:04;1.60;99.90
3678;DHT22;1855;50.934;6.958;2023-03-07T16:18:33;1.60;99.90
3678;DHT22;1855;50.934;6.958;2023-03-07T16:21:00;1.50;99.90
3678;DHT22;1855;50.934;6.958;2023-03-07T16:23:29;1.40;99.90
3678;DHT22;1855;50.934;6.958;2023-03-07T16:25:56;1.30;99.90
3678;DHT22;1855;50.934;6.958;2023-03-07T16:28:23;1.20;99.90
3678;DHT22;1855;50.934;6.958;2023-03-07T16:30:50;1.10;99.90
3678;DHT22;1855;50.934;6.958;2023-03-07T16:33:17;1.00;99.90
3678;DHT22;1855;50.934;6.958;2023-03-07T16:35:43;1.00;99.90
3678;DHT22;1855;50.934;6.958;2023-03-07T16:38:10;1.00;99.90
3678;DHT22;1855;50.934;6.958;2023-03-07T16:40:41;1.00;99.90
3678;DHT22;1855;50.934;6.958;2023-03-07T16:43:24;1.00;99.90
3678;DHT22;1855;50.934;6.958;2023-03-07T16:45:54;0.90;99.90